Chili, WI (54420)

4:04 AM CDT on August 24, 2016 (GMT -0500)
Marshfield Municipal | | Change Station

Elev 1276 ft 44.64 °N, 90.19 °W | Updated 10 minutes ago

Light Rain
Light Rain
67 °F
Feels Like 67 °F
N
13
Wind Variable Wind from South

Today
High -- | Low -- °F
--% Chance of Precip.
Yesterday
High -- | Low -- °F
Precip. -- in
Pressure 29.83 in
Visibility 8.0 miles
Clouds Mostly Cloudy 400 ft
Mostly Cloudy 11000 ft
Dew Point 64 °F
Humidity 90%
Rainfall 0.19 in
Snow Depth Not available.
6:14 AM 7:50 PM
Waning Gibbous, 59% visible
METAR KMFI 240854Z AUTO 18011KT 8SM -RA BKN004 BKN110 19/18 A2985 RMK AO2 SLP102 P0004 6//// T01940178 58016 $
Pressure 29.83 in
Visibility 8.0 miles
Clouds Mostly Cloudy 400 ft
Mostly Cloudy 11000 ft
Dew Point 64 °F
Humidity 90%
Rainfall 0.19 in
Snow Depth Not available.
6:14 AM 7:50 PM
Waning Gibbous, 59% visible
METAR KMFI 240854Z AUTO 18011KT 8SM -RA BKN004 BKN110 19/18 A2985 RMK AO2 SLP102 P0004 6//// T01940178 58016 $

10-Day Weather Forecast

Almanac

Astronomy

Aug. 24, 2016 Rise Set
Actual Time
Civil Twilight
Nautical Twilight
Astronomical Twilight
Moon
Length of Visible Light
Length of Day
Tomorrow will be .
, % of the Moon is Illuminated

Today's Extremes

State Highs State Lows

Community

WunderPhotos

Upload Photos

1,934,560 photos uploaded!

WunderBlog® & News

Nearby

Air Quality

  Air Quality AQ Index Pollutant
Not available.

Snow Depth

Station Depth Elevation

Earthquake Activity

City Distance Mag. Time & Date
Minimum magnitude displayed is 2.5.

Coastal Water Temperatures

Place Temperature

Stations

Nearby Weather Stations

Station Location Temp. Windchill Dew Point Humidity Wind Precip. Elev Updated Type
                   

Watches & Warnings

There are currently no watches in effect.